Terminal Aerodrome Forecast
Issued by NWS

Home | Current Version | Previous Version | Text Only | Print | Product List | Glossary Off
Versions: 1 2 3 4 5 6 7 8 9 10 11 12 13 14 15 16 17 18 19 20 21 22

000
FTUS43 KMPX 160716 AAA
TAFRNH
TAF AMD
KRNH 160716Z 1607/1706 33008KT P6SM OVC014
     FM161300 VRB04KT P6SM OVC025
     FM161700 11005KT P6SM BKN040
     FM161900 14009KT P6SM BKN060
     FM170100 14011G20KT P6SM BKN130=

USA.gov is the U.S. government's official web portal to all federal, state and local government web resources and services.